createdAt,value
2022-09-17T00:00:53.261Z,3.50
2022-09-17T00:01:53.623Z,5.00
2022-09-17T00:02:53.290Z,4.70
2022-09-17T00:03:54.149Z,5.20
2022-09-17T00:04:53.170Z,3.50
2022-09-17T00:05:53.315Z,3.40
2022-09-17T00:06:53.193Z,3.90
2022-09-17T00:07:53.345Z,4.60
2022-09-17T00:08:53.293Z,5.50
2022-09-17T00:09:53.163Z,4.60
2022-09-17T00:10:53.203Z,3.60
2022-09-17T00:11:53.209Z,4.90
2022-09-17T00:12:53.367Z,3.80
2022-09-17T00:13:53.132Z,3.40
2022-09-17T00:14:53.267Z,4.60
2022-09-17T00:15:53.162Z,4.10
2022-09-17T00:16:53.025Z,4.60
2022-09-17T00:17:53.186Z,3.20
2022-09-17T00:18:53.833Z,4.40
2022-09-17T00:19:53.640Z,4.30
2022-09-17T00:20:54.222Z,5.80
2022-09-17T00:21:52.976Z,5.20
2022-09-17T00:22:52.943Z,5.60
2022-09-17T00:23:53.071Z,5.10
2022-09-17T00:24:53.098Z,4.80
2022-09-17T00:25:53.166Z,5.50
2022-09-17T00:26:53.369Z,6.10
2022-09-17T00:27:53.285Z,4.90
2022-09-17T00:28:52.985Z,3.70
2022-09-17T00:29:53.156Z,6.30
2022-09-17T00:30:53.120Z,6.10
2022-09-17T00:31:53.849Z,5.80
2022-09-17T00:32:52.883Z,7.60
2022-09-17T00:33:53.122Z,7.30
2022-09-17T00:34:52.860Z,8.50
2022-09-17T00:35:52.810Z,5.50
2022-09-17T00:36:52.857Z,6.30
2022-09-17T00:37:52.791Z,6.90
2022-09-17T00:38:52.823Z,6.60
2022-09-17T00:39:52.850Z,5.50
2022-09-17T00:40:52.805Z,5.50
2022-09-17T00:41:52.762Z,5.50
2022-09-17T00:42:52.734Z,5.20
2022-09-17T00:43:52.739Z,4.60
2022-09-17T00:44:52.766Z,4.60
2022-09-17T00:45:52.709Z,4.20
2022-09-17T00:46:52.761Z,4.30
2022-09-17T00:47:52.679Z,6.40
2022-09-17T00:48:52.663Z,5.00
2022-09-17T00:49:52.689Z,4.80
2022-09-17T00:50:52.731Z,5.60
2022-09-17T00:51:55.970Z,5.20
2022-09-17T00:52:52.633Z,5.40
2022-09-17T00:53:52.663Z,4.80
2022-09-17T00:54:52.621Z,5.40
2022-09-17T00:55:52.626Z,4.30
2022-09-17T00:56:52.664Z,4.80
2022-09-17T00:57:52.664Z,3.30
2022-09-17T00:58:52.548Z,3.90
2022-09-17T00:59:52.565Z,5.70
2022-09-17T01:00:52.593Z,5.20
2022-09-17T01:01:52.605Z,5.20
2022-09-17T01:02:52.559Z,5.10
2022-09-17T01:03:52.487Z,6.90
2022-09-17T01:04:52.546Z,7.70
2022-09-17T01:05:52.496Z,5.40
2022-09-17T01:06:52.461Z,4.50
2022-09-17T01:07:52.503Z,5.30
2022-09-17T01:08:52.483Z,4.90
2022-09-17T01:09:52.435Z,4.80
2022-09-17T01:10:52.485Z,4.80
2022-09-17T01:11:52.455Z,4.80
2022-09-17T01:12:52.455Z,5.70
2022-09-17T01:13:52.457Z,4.60
2022-09-17T01:14:52.427Z,6.80
2022-09-17T01:15:52.522Z,6.90
2022-09-17T01:16:52.349Z,5.90
2022-09-17T01:17:52.350Z,3.40
2022-09-17T01:18:52.331Z,5.90
2022-09-17T01:19:52.393Z,4.50
2022-09-17T01:20:52.377Z,5.30
2022-09-17T01:21:52.305Z,4.90
2022-09-17T01:22:52.312Z,4.80
2022-09-17T01:23:52.345Z,4.80
2022-09-17T01:24:52.345Z,4.00
2022-09-17T01:25:52.299Z,3.50
2022-09-17T01:26:52.336Z,3.80
2022-09-17T01:27:52.257Z,2.90
2022-09-17T01:28:52.276Z,4.60
2022-09-17T01:29:52.285Z,5.40
2022-09-17T01:30:54.163Z,3.90
2022-09-17T01:31:52.379Z,3.30
2022-09-17T01:32:52.235Z,3.00
2022-09-17T01:33:52.260Z,5.40
2022-09-17T01:34:52.234Z,3.60
2022-09-17T01:35:52.184Z,3.00
2022-09-17T01:36:52.185Z,4.90
2022-09-17T01:37:52.134Z,4.10
2022-09-17T01:38:52.226Z,3.50
2022-09-17T01:39:52.244Z,3.60
2022-09-17T01:40:52.707Z,2.60
2022-09-17T01:41:52.211Z,2.90
2022-09-17T01:42:52.217Z,4.10
2022-09-17T01:43:52.075Z,2.80
2022-09-17T01:44:52.157Z,3.50
2022-09-17T01:45:52.198Z,2.80
2022-09-17T01:46:52.392Z,4.50
2022-09-17T01:47:52.122Z,5.10
2022-09-17T01:48:52.010Z,3.90
2022-09-17T01:49:52.002Z,3.00
2022-09-17T01:50:52.110Z,2.70
2022-09-17T01:51:52.061Z,3.60
2022-09-17T01:52:52.021Z,3.30
2022-09-17T01:53:52.066Z,3.40
2022-09-17T01:54:51.947Z,3.50
2022-09-17T01:55:51.932Z,3.00
2022-09-17T01:56:51.999Z,3.00
2022-09-17T01:57:51.984Z,2.30
2022-09-17T01:58:51.928Z,3.80
2022-09-17T01:59:51.894Z,3.70
2022-09-17T02:00:51.971Z,3.10
2022-09-17T02:01:51.896Z,3.80
2022-09-17T02:02:51.905Z,3.90
2022-09-17T02:03:51.858Z,3.30
2022-09-17T02:04:51.862Z,2.90
2022-09-17T02:05:51.847Z,4.00
2022-09-17T02:06:51.788Z,3.20
2022-09-17T02:07:51.846Z,2.70
2022-09-17T02:08:51.872Z,3.50
2022-09-17T02:09:51.771Z,3.00
2022-09-17T02:10:51.795Z,3.70
2022-09-17T02:11:51.724Z,3.30
2022-09-17T02:12:51.715Z,3.50
2022-09-17T02:13:51.702Z,3.50
2022-09-17T02:14:51.749Z,4.50
2022-09-17T02:15:51.720Z,4.90
2022-09-17T02:16:51.703Z,6.20
2022-09-17T02:17:51.661Z,5.20
2022-09-17T02:18:51.671Z,5.20
2022-09-17T02:19:52.668Z,5.70
2022-09-17T02:20:51.671Z,3.70
2022-09-17T02:21:51.635Z,3.10
2022-09-17T02:22:51.672Z,3.60
2022-09-17T02:23:51.643Z,3.40
2022-09-17T02:24:51.577Z,3.50
2022-09-17T02:25:51.590Z,2.40
2022-09-17T02:26:51.611Z,3.10
2022-09-17T02:27:51.612Z,2.90
2022-09-17T02:28:51.572Z,3.00
2022-09-17T02:29:51.569Z,2.70
2022-09-17T02:30:51.661Z,3.00
2022-09-17T02:31:51.768Z,3.70
2022-09-17T02:32:51.616Z,3.20
2022-09-17T02:33:51.685Z,3.60
2022-09-17T02:34:51.493Z,2.60
2022-09-17T02:35:51.458Z,2.60
2022-09-17T02:36:51.473Z,2.10
2022-09-17T02:37:51.526Z,3.60
2022-09-17T02:38:52.137Z,2.40
2022-09-17T02:39:51.560Z,3.50
2022-09-17T02:40:51.417Z,4.10
2022-09-17T02:41:51.426Z,3.80
2022-09-17T02:42:51.407Z,2.40
2022-09-17T02:43:51.574Z,2.60
2022-09-17T02:44:51.418Z,4.20
2022-09-17T02:45:51.374Z,4.20
2022-09-17T02:46:51.424Z,3.00
2022-09-17T02:47:51.401Z,3.90
2022-09-17T02:48:52.093Z,3.70
2022-09-17T02:49:51.334Z,3.10
2022-09-17T02:50:51.361Z,2.80
2022-09-17T02:51:51.341Z,3.70
2022-09-17T02:52:51.308Z,3.60
2022-09-17T02:53:52.278Z,3.50
2022-09-17T02:54:51.334Z,3.80
2022-09-17T02:55:51.262Z,3.60
2022-09-17T02:56:51.297Z,4.30
2022-09-17T02:57:51.224Z,3.30
2022-09-17T02:58:51.225Z,3.00
2022-09-17T02:59:51.254Z,2.50
2022-09-17T03:00:51.308Z,2.10
2022-09-17T03:01:51.329Z,2.70
2022-09-17T03:02:51.731Z,2.50
2022-09-17T03:03:51.242Z,3.60
2022-09-17T03:04:51.252Z,3.70
2022-09-17T03:05:51.209Z,3.90
2022-09-17T03:06:51.124Z,4.80
2022-09-17T03:07:51.147Z,4.30
2022-09-17T03:08:51.221Z,3.60
2022-09-17T03:09:51.177Z,4.40
2022-09-17T03:10:51.125Z,3.10
2022-09-17T03:11:51.118Z,3.50
2022-09-17T03:12:51.144Z,4.20
2022-09-17T03:13:51.066Z,2.60
2022-09-17T03:14:51.101Z,3.60
2022-09-17T03:15:51.115Z,3.40
2022-09-17T03:16:51.072Z,4.20
2022-09-17T03:17:53.354Z,4.60
2022-09-17T03:18:51.040Z,6.20
2022-09-17T03:19:50.978Z,5.50
2022-09-17T03:20:50.998Z,7.00
2022-09-17T03:21:50.970Z,6.10
2022-09-17T03:22:50.977Z,5.10
2022-09-17T03:23:50.967Z,4.50
2022-09-17T03:24:50.906Z,4.70
2022-09-17T03:25:50.926Z,3.90
2022-09-17T03:26:50.963Z,5.30
2022-09-17T03:27:50.977Z,6.30
2022-09-17T03:28:50.896Z,4.90
2022-09-17T03:29:50.936Z,5.00
2022-09-17T03:30:50.866Z,3.20
2022-09-17T03:31:50.974Z,4.40
2022-09-17T03:32:50.900Z,5.50
2022-09-17T03:33:50.886Z,4.90
2022-09-17T03:34:50.818Z,5.40
2022-09-17T03:35:51.459Z,4.20
2022-09-17T03:36:50.781Z,3.70
2022-09-17T03:37:50.766Z,4.60
2022-09-17T03:38:50.810Z,4.20
2022-09-17T03:39:50.828Z,4.40
2022-09-17T03:40:50.840Z,4.60
2022-09-17T03:41:50.720Z,4.10
2022-09-17T03:42:51.033Z,3.80
2022-09-17T03:43:51.839Z,3.00
2022-09-17T03:44:50.834Z,4.90
2022-09-17T03:45:50.777Z,3.10
2022-09-17T03:46:50.772Z,3.80
2022-09-17T03:47:50.668Z,3.50
2022-09-17T03:48:50.714Z,4.40
2022-09-17T03:49:50.643Z,3.60
2022-09-17T03:50:50.768Z,3.40
2022-09-17T03:51:50.711Z,3.50
2022-09-17T03:52:50.754Z,4.00
2022-09-17T03:53:50.666Z,3.50
2022-09-17T03:54:51.628Z,3.50
2022-09-17T03:55:50.627Z,3.50
2022-09-17T03:56:50.643Z,3.50
2022-09-17T03:57:50.535Z,3.50
2022-09-17T03:58:50.585Z,4.50
2022-09-17T03:59:50.552Z,5.00
2022-09-17T04:00:50.579Z,3.30
2022-09-17T04:01:50.568Z,2.90
2022-09-17T04:02:50.647Z,2.80
2022-09-17T04:03:50.467Z,4.60
2022-09-17T04:04:50.484Z,3.80
2022-09-17T04:05:50.467Z,4.10
2022-09-17T04:06:50.472Z,4.10
2022-09-17T04:07:50.418Z,4.80
2022-09-17T04:08:50.502Z,3.80
2022-09-17T04:09:50.454Z,3.10
2022-09-17T04:10:50.387Z,2.80
2022-09-17T04:11:50.617Z,3.70
2022-09-17T04:12:50.393Z,3.40
2022-09-17T04:13:50.361Z,2.80
2022-09-17T04:14:50.418Z,3.00
2022-09-17T04:15:50.405Z,3.20
2022-09-17T04:16:50.336Z,4.10
2022-09-17T04:17:50.316Z,3.70
2022-09-17T04:18:50.324Z,4.00
2022-09-17T04:19:50.306Z,4.10
2022-09-17T04:20:50.344Z,4.30
2022-09-17T04:21:50.563Z,3.70
2022-09-17T04:22:50.257Z,3.60
2022-09-17T04:23:50.282Z,4.00
2022-09-17T04:24:50.232Z,3.60
2022-09-17T04:25:50.223Z,3.20
2022-09-17T04:26:50.245Z,3.60
2022-09-17T04:27:50.213Z,3.00
2022-09-17T04:28:50.194Z,3.20
2022-09-17T04:29:50.209Z,4.20
2022-09-17T04:30:50.193Z,3.90
2022-09-17T04:31:50.166Z,4.20
2022-09-17T04:32:50.168Z,4.30
2022-09-17T04:33:50.129Z,3.20
2022-09-17T04:34:50.125Z,3.30
2022-09-17T04:35:50.147Z,3.20
2022-09-17T04:36:50.109Z,3.40
2022-09-17T04:37:50.083Z,2.40
2022-09-17T04:38:50.126Z,2.60
2022-09-17T04:39:50.101Z,2.70
2022-09-17T04:40:50.061Z,3.30
2022-09-17T04:41:50.102Z,3.10
2022-09-17T04:42:50.072Z,3.40
2022-09-17T04:43:50.012Z,3.90
2022-09-17T04:44:50.033Z,2.90
2022-09-17T04:45:49.997Z,3.30
2022-09-17T04:46:50.047Z,3.70
2022-09-17T04:47:50.008Z,5.20
2022-09-17T04:48:52.618Z,4.20
2022-09-17T04:49:50.066Z,5.10
2022-09-17T04:50:49.987Z,5.20
2022-09-17T04:51:56.846Z,6.60
2022-09-17T04:52:49.930Z,5.10
2022-09-17T04:53:49.906Z,6.10
2022-09-17T04:54:49.923Z,4.80
2022-09-17T04:55:49.886Z,3.90
2022-09-17T04:56:49.903Z,4.20
2022-09-17T04:57:49.946Z,4.00
2022-09-17T04:58:49.853Z,3.40
2022-09-17T04:59:49.841Z,2.40
2022-09-17T05:00:49.956Z,3.90
2022-09-17T05:01:49.867Z,3.80
2022-09-17T05:02:49.883Z,3.60
2022-09-17T05:03:50.123Z,3.10
2022-09-17T05:04:49.782Z,4.00
2022-09-17T05:05:49.762Z,3.30
2022-09-17T05:06:49.764Z,4.00
2022-09-17T05:07:49.763Z,4.00
2022-09-17T05:08:49.814Z,3.30
2022-09-17T05:09:49.734Z,3.10
2022-09-17T05:10:49.751Z,3.10
2022-09-17T05:11:49.725Z,4.40
2022-09-17T05:12:49.760Z,3.40
2022-09-17T05:13:49.890Z,4.20
2022-09-17T05:14:49.750Z,3.90
2022-09-17T05:15:49.783Z,4.40
2022-09-17T05:16:49.862Z,3.60
2022-09-17T05:17:49.748Z,4.60
2022-09-17T05:18:49.858Z,3.60
2022-09-17T05:19:49.682Z,2.80
2022-09-17T05:20:49.694Z,3.20
2022-09-17T05:21:49.606Z,3.30
2022-09-17T05:22:49.582Z,3.90
2022-09-17T05:23:49.579Z,3.90
2022-09-17T05:24:49.576Z,5.00
2022-09-17T05:25:49.554Z,4.60
2022-09-17T05:26:49.871Z,4.10
2022-09-17T05:27:49.558Z,4.10
2022-09-17T05:28:55.872Z,3.70
2022-09-17T05:29:56.659Z,3.10
2022-09-17T05:30:55.990Z,5.00
2022-09-17T05:31:49.569Z,3.80
2022-09-17T05:32:49.526Z,2.70
2022-09-17T05:33:49.451Z,3.30
2022-09-17T05:34:49.657Z,3.10
2022-09-17T05:35:49.464Z,4.10
2022-09-17T05:36:49.590Z,2.60
2022-09-17T05:37:49.706Z,3.40
2022-09-17T05:38:49.507Z,3.20
2022-09-17T05:39:49.565Z,3.10
2022-09-17T05:40:49.372Z,3.70
2022-09-17T05:41:49.399Z,2.70
2022-09-17T05:42:49.650Z,2.90
2022-09-17T05:43:49.399Z,3.80
2022-09-17T05:44:49.489Z,3.40
2022-09-17T05:45:49.348Z,4.40
2022-09-17T05:46:49.655Z,2.30
2022-09-17T05:47:49.500Z,2.00
2022-09-17T05:48:49.419Z,1.90
2022-09-17T05:49:49.370Z,2.90
2022-09-17T05:50:49.544Z,3.50
2022-09-17T05:51:49.561Z,2.80
2022-09-17T05:52:49.307Z,3.60
2022-09-17T05:53:49.275Z,3.10
2022-09-17T05:54:49.217Z,2.90
2022-09-17T05:55:49.202Z,3.30
2022-09-17T05:56:49.233Z,2.30
2022-09-17T05:57:49.221Z,3.20
2022-09-17T05:58:49.384Z,2.30
2022-09-17T05:59:49.161Z,3.00
2022-09-17T06:00:49.157Z,3.90
2022-09-17T06:01:49.168Z,3.20
2022-09-17T06:02:49.229Z,3.40
2022-09-17T06:03:49.223Z,3.10
2022-09-17T06:04:49.108Z,2.70
2022-09-17T06:05:49.089Z,2.50
2022-09-17T06:06:49.105Z,2.60
2022-09-17T06:07:49.095Z,3.10
2022-09-17T06:08:49.155Z,3.40
2022-09-17T06:09:49.180Z,2.60
2022-09-17T06:10:49.210Z,2.60
2022-09-17T06:11:49.294Z,2.80
2022-09-17T06:12:49.165Z,2.20
2022-09-17T06:13:49.027Z,3.40
2022-09-17T06:14:49.091Z,3.50
2022-09-17T06:15:49.018Z,3.80
2022-09-17T06:16:48.983Z,3.30
2022-09-17T06:17:48.959Z,2.50
2022-09-17T06:18:48.958Z,3.10
2022-09-17T06:19:48.958Z,2.80
2022-09-17T06:20:49.012Z,3.30
2022-09-17T06:21:49.177Z,3.70
2022-09-17T06:22:49.136Z,3.80
2022-09-17T06:23:49.088Z,3.20
2022-09-17T06:24:48.887Z,2.70
2022-09-17T06:25:49.200Z,4.30
2022-09-17T06:26:48.916Z,3.20
2022-09-17T06:27:48.982Z,3.40
2022-09-17T06:28:49.588Z,2.70
2022-09-17T06:29:48.884Z,3.20
2022-09-17T06:30:48.875Z,3.60
2022-09-17T06:31:48.927Z,2.40
2022-09-17T06:32:48.825Z,2.20
2022-09-17T06:33:50.683Z,2.20
2022-09-17T06:34:48.818Z,1.60
2022-09-17T06:35:48.836Z,2.90
2022-09-17T06:36:48.813Z,2.70
2022-09-17T06:37:48.964Z,3.20
2022-09-17T06:38:48.890Z,2.50
2022-09-17T06:39:48.731Z,2.20
2022-09-17T06:40:48.816Z,3.00
2022-09-17T06:41:48.855Z,2.80
2022-09-17T06:42:48.851Z,2.50
2022-09-17T06:43:48.700Z,3.40
2022-09-17T06:44:48.865Z,3.40
2022-09-17T06:45:48.915Z,3.60
2022-09-17T06:46:49.374Z,4.80
2022-09-17T06:47:48.660Z,3.20
2022-09-17T06:48:48.747Z,2.50
2022-09-17T06:49:48.870Z,3.30
2022-09-17T06:50:48.643Z,4.10
2022-09-17T06:51:48.640Z,2.50
2022-09-17T06:52:48.776Z,2.20
2022-09-17T06:53:48.659Z,4.20
2022-09-17T06:54:48.615Z,3.90
2022-09-17T06:55:48.551Z,4.40
2022-09-17T06:56:48.638Z,3.30
2022-09-17T06:57:48.920Z,2.90
2022-09-17T06:58:48.538Z,3.50
2022-09-17T06:59:48.570Z,3.40
2022-09-17T07:00:48.732Z,3.70
2022-09-17T07:01:48.538Z,3.20
2022-09-17T07:02:48.501Z,2.90
2022-09-17T07:03:48.495Z,2.70
2022-09-17T07:04:48.550Z,3.10
2022-09-17T07:05:48.414Z,3.30
2022-09-17T07:06:48.426Z,3.20
2022-09-17T07:07:48.406Z,4.40
2022-09-17T07:08:48.526Z,2.50
2022-09-17T07:09:48.378Z,3.50
2022-09-17T07:10:49.173Z,4.40
2022-09-17T07:11:48.463Z,4.60
2022-09-17T07:12:50.071Z,4.30
2022-09-17T07:13:48.358Z,3.30
2022-09-17T07:14:48.577Z,3.80
2022-09-17T07:15:48.419Z,3.10
2022-09-17T07:16:48.518Z,3.30
2022-09-17T07:17:48.283Z,2.70
2022-09-17T07:18:48.306Z,3.30
2022-09-17T07:19:48.281Z,3.00
2022-09-17T07:20:48.382Z,3.70
2022-09-17T07:21:48.316Z,4.10
2022-09-17T07:22:48.334Z,4.00
2022-09-17T07:23:48.266Z,4.50
2022-09-17T07:24:48.219Z,3.60
2022-09-17T07:25:48.351Z,4.00
2022-09-17T07:26:48.239Z,3.20
2022-09-17T07:27:48.329Z,3.30
2022-09-17T07:28:48.353Z,4.60
2022-09-17T07:29:48.508Z,4.30
2022-09-17T07:30:48.293Z,4.20
2022-09-17T07:31:48.279Z,5.10
2022-09-17T07:32:48.304Z,4.30
2022-09-17T07:33:48.130Z,3.80
2022-09-17T07:34:48.166Z,3.70
2022-09-17T07:35:48.085Z,4.50
2022-09-17T07:36:48.085Z,4.60
2022-09-17T07:37:48.422Z,3.20
2022-09-17T07:38:48.277Z,4.20
2022-09-17T07:39:48.111Z,4.00
2022-09-17T07:40:48.107Z,3.60
2022-09-17T07:41:48.045Z,3.60
2022-09-17T07:42:48.015Z,2.60
2022-09-17T07:43:48.002Z,2.60
2022-09-17T07:44:48.040Z,2.50
2022-09-17T07:45:47.969Z,2.20
2022-09-17T07:46:48.046Z,3.80
2022-09-17T07:47:47.958Z,3.30
2022-09-17T07:48:47.952Z,3.30
2022-09-17T07:49:47.935Z,3.30
2022-09-17T07:50:47.990Z,2.00
2022-09-17T07:51:47.952Z,2.80
2022-09-17T07:52:47.896Z,2.60
2022-09-17T07:53:48.092Z,2.30
2022-09-17T07:54:47.887Z,4.00
2022-09-17T07:55:49.694Z,3.70
2022-09-17T07:56:48.173Z,2.80
2022-09-17T07:57:47.924Z,3.00
2022-09-17T07:58:47.824Z,2.20
2022-09-17T07:59:47.836Z,3.00
2022-09-17T08:00:47.802Z,2.10
2022-09-17T08:01:47.978Z,2.30
2022-09-17T08:02:47.973Z,2.60
2022-09-17T08:03:47.836Z,2.80
2022-09-17T08:04:47.752Z,3.30
2022-09-17T08:05:47.743Z,1.20
2022-09-17T08:06:47.738Z,0.90
2022-09-17T08:07:47.745Z,1.50
2022-09-17T08:08:47.741Z,2.50
2022-09-17T08:09:48.500Z,3.00
2022-09-17T08:10:47.696Z,1.70
2022-09-17T08:11:56.321Z,2.80
2022-09-17T08:12:47.742Z,2.70
2022-09-17T08:13:47.712Z,1.20
2022-09-17T08:14:47.677Z,1.50
2022-09-17T08:15:47.657Z,2.20
2022-09-17T08:16:47.715Z,2.00
2022-09-17T08:17:47.634Z,2.40
2022-09-17T08:18:47.612Z,2.10
2022-09-17T08:19:47.597Z,2.60
2022-09-17T08:20:47.688Z,2.80
2022-09-17T08:21:47.570Z,2.80
2022-09-17T08:22:50.129Z,2.80
2022-09-17T08:23:47.650Z,2.70
2022-09-17T08:24:47.558Z,2.40
2022-09-17T08:25:47.532Z,1.90
2022-09-17T08:26:47.551Z,1.90
2022-09-17T08:27:47.504Z,2.50
2022-09-17T08:28:47.597Z,2.10
2022-09-17T08:29:47.479Z,2.40
2022-09-17T08:30:50.178Z,3.70
2022-09-17T08:31:47.549Z,4.50
2022-09-17T08:32:47.485Z,5.00
2022-09-17T08:33:47.436Z,5.60
2022-09-17T08:34:47.422Z,4.40
2022-09-17T08:35:47.437Z,6.50
2022-09-17T08:36:47.397Z,5.90
2022-09-17T08:37:47.390Z,4.60
2022-09-17T08:38:47.467Z,5.90
2022-09-17T08:39:47.417Z,4.40
2022-09-17T08:40:47.358Z,4.30
2022-09-17T08:41:48.133Z,3.90
2022-09-17T08:42:47.579Z,3.10
2022-09-17T08:43:47.331Z,3.40
2022-09-17T08:44:47.349Z,3.00
2022-09-17T08:45:47.391Z,2.50
2022-09-17T08:46:47.419Z,2.40
2022-09-17T08:47:47.271Z,2.50
2022-09-17T08:48:47.257Z,4.80
2022-09-17T08:49:47.252Z,3.00
2022-09-17T08:50:47.269Z,4.50
2022-09-17T08:51:47.240Z,3.20
2022-09-17T08:52:47.288Z,4.00
2022-09-17T08:53:47.212Z,4.00
2022-09-17T08:54:47.194Z,5.50
2022-09-17T08:55:47.198Z,4.40
2022-09-17T08:56:47.238Z,5.30
2022-09-17T08:57:49.188Z,3.50
2022-09-17T08:58:47.352Z,3.60
2022-09-17T08:59:47.161Z,2.40
2022-09-17T09:00:47.135Z,3.00
2022-09-17T09:01:47.214Z,4.20
2022-09-17T09:02:47.213Z,3.10
2022-09-17T09:03:47.140Z,3.80
2022-09-17T09:04:47.085Z,5.50
2022-09-17T09:05:47.168Z,3.70
2022-09-17T09:06:47.117Z,3.00
2022-09-17T09:07:47.047Z,2.80
2022-09-17T09:08:47.155Z,3.70
2022-09-17T09:09:47.030Z,2.40
2022-09-17T09:10:47.168Z,2.90
2022-09-17T09:11:46.005Z,2.40
2022-09-17T09:12:47.000Z,3.00
2022-09-17T09:13:46.993Z,2.60
2022-09-17T09:14:47.036Z,2.70
2022-09-17T09:15:47.058Z,3.20
2022-09-17T09:16:47.122Z,2.80
2022-09-17T09:17:46.981Z,2.50
2022-09-17T09:18:47.363Z,3.70
2022-09-17T09:19:46.914Z,4.20
2022-09-17T09:20:46.950Z,2.80
2022-09-17T09:21:46.904Z,3.10
2022-09-17T09:22:48.633Z,2.90
2022-09-17T09:23:46.876Z,2.80
2022-09-17T09:24:47.629Z,3.50
2022-09-17T09:25:46.846Z,2.80
2022-09-17T09:26:46.908Z,3.30
2022-09-17T09:27:47.120Z,3.90
2022-09-17T09:28:46.819Z,3.00
2022-09-17T09:29:46.802Z,3.40
2022-09-17T09:30:46.821Z,4.80
2022-09-17T09:31:46.937Z,3.60
2022-09-17T09:32:46.817Z,4.60
2022-09-17T09:33:48.071Z,2.70
2022-09-17T09:34:46.759Z,2.50
2022-09-17T09:35:46.736Z,3.20
2022-09-17T09:36:46.756Z,2.60
2022-09-17T09:37:46.724Z,2.50
2022-09-17T09:38:46.782Z,1.70
2022-09-17T09:39:46.706Z,2.70
2022-09-17T09:40:47.500Z,3.50
2022-09-17T09:41:46.695Z,3.50
2022-09-17T09:42:46.661Z,2.70
2022-09-17T09:44:03.368Z,3.20
2022-09-17T09:44:46.687Z,2.90
2022-09-17T09:45:46.670Z,4.70
2022-09-17T09:46:46.721Z,3.00
2022-09-17T09:47:46.628Z,3.10
2022-09-17T09:48:46.598Z,3.30
2022-09-17T09:49:46.582Z,3.20
2022-09-17T09:51:05.271Z,4.00
2022-09-17T09:51:49.200Z,3.40
2022-09-17T09:52:46.880Z,3.70
2022-09-17T09:53:46.660Z,3.60
2022-09-17T09:54:47.016Z,4.10
2022-09-17T09:55:46.525Z,2.30
2022-09-17T09:56:46.530Z,2.70
2022-09-17T09:57:46.511Z,4.10
2022-09-17T09:58:46.478Z,3.40
2022-09-17T09:59:46.478Z,3.00
2022-09-17T10:00:46.460Z,2.20
2022-09-17T10:01:46.646Z,3.10
2022-09-17T10:02:46.561Z,3.60
2022-09-17T10:03:47.130Z,4.00
2022-09-17T10:04:49.247Z,3.50
2022-09-17T10:05:46.481Z,2.90
2022-09-17T10:06:46.416Z,3.40
2022-09-17T10:07:46.403Z,2.40
2022-09-17T10:08:46.433Z,2.90
2022-09-17T10:09:46.371Z,3.50
2022-09-17T10:10:46.353Z,2.80
2022-09-17T10:11:46.439Z,4.00
2022-09-17T10:12:46.363Z,4.20
2022-09-17T10:13:46.309Z,3.40
2022-09-17T10:14:47.172Z,3.20
2022-09-17T10:15:46.364Z,4.10
2022-09-17T10:16:46.417Z,3.50
2022-09-17T10:17:46.299Z,4.10
2022-09-17T10:18:46.511Z,3.00
2022-09-17T10:19:46.368Z,2.30
2022-09-17T10:20:46.363Z,3.10
2022-09-17T10:21:46.328Z,2.90
2022-09-17T10:22:46.237Z,3.60
2022-09-17T10:23:46.272Z,3.10
2022-09-17T10:24:46.189Z,2.70
2022-09-17T10:25:46.188Z,2.30
2022-09-17T10:26:46.293Z,2.90
2022-09-17T10:27:46.190Z,3.60
2022-09-17T10:28:46.256Z,4.20
2022-09-17T10:29:46.344Z,3.30
2022-09-17T10:30:46.398Z,2.30
2022-09-17T10:31:46.462Z,1.90
2022-09-17T10:32:46.709Z,2.20
2022-09-17T10:33:46.399Z,3.20
2022-09-17T10:34:46.588Z,2.70
2022-09-17T10:35:46.402Z,3.10
2022-09-17T10:36:46.217Z,3.60
2022-09-17T10:37:46.089Z,4.30
2022-09-17T10:38:46.552Z,4.20
2022-09-17T10:39:46.683Z,4.40
2022-09-17T10:40:46.017Z,3.50
2022-09-17T10:41:46.260Z,4.40
2022-09-17T10:42:46.345Z,4.80
2022-09-17T10:43:46.867Z,3.50
2022-09-17T10:44:46.347Z,2.10
2022-09-17T10:45:46.182Z,2.60
2022-09-17T10:46:45.973Z,3.00
2022-09-17T10:47:46.040Z,3.40
2022-09-17T10:48:46.564Z,2.00
2022-09-17T10:49:46.024Z,3.40
2022-09-17T10:50:46.035Z,2.80
2022-09-17T10:51:45.925Z,2.70
2022-09-17T10:52:45.884Z,2.20
2022-09-17T10:53:45.945Z,2.60
2022-09-17T10:54:45.984Z,2.80
2022-09-17T10:55:45.880Z,3.00
2022-09-17T10:56:46.050Z,2.60
2022-09-17T10:57:45.817Z,3.20
2022-09-17T10:58:45.840Z,3.70
2022-09-17T10:59:46.198Z,4.00
2022-09-17T11:00:45.828Z,4.40
2022-09-17T11:01:46.033Z,4.10
2022-09-17T11:02:46.629Z,4.40
2022-09-17T11:03:46.489Z,4.90
2022-09-17T11:04:45.849Z,4.20
2022-09-17T11:05:45.828Z,3.00
2022-09-17T11:06:45.945Z,3.00
2022-09-17T11:07:45.751Z,3.00
2022-09-17T11:08:45.872Z,2.70
2022-09-17T11:09:45.843Z,2.90
2022-09-17T11:10:45.910Z,2.80
2022-09-17T11:11:45.732Z,3.00
2022-09-17T11:12:45.803Z,3.60
2022-09-17T11:13:45.808Z,3.80
2022-09-17T11:14:45.686Z,3.40
2022-09-17T11:15:48.604Z,3.20
2022-09-17T11:16:45.764Z,3.00
2022-09-17T11:17:45.709Z,3.70
2022-09-17T11:18:45.916Z,3.80
2022-09-17T11:19:45.566Z,4.70
2022-09-17T11:20:45.601Z,3.60
2022-09-17T11:21:45.544Z,3.10
2022-09-17T11:22:45.534Z,3.50
2022-09-17T11:23:45.548Z,2.40
2022-09-17T11:24:45.540Z,3.00
2022-09-17T11:25:45.595Z,3.40
2022-09-17T11:26:45.552Z,2.50
2022-09-17T11:27:45.663Z,3.90
2022-09-17T11:28:45.498Z,3.20
2022-09-17T11:29:45.483Z,3.60
2022-09-17T11:30:45.456Z,2.80
2022-09-17T11:31:45.568Z,3.90
2022-09-17T11:32:45.829Z,2.80
2022-09-17T11:33:45.504Z,3.10
2022-09-17T11:34:45.528Z,4.70
2022-09-17T11:35:46.255Z,4.20
2022-09-17T11:36:45.464Z,3.80
2022-09-17T11:37:45.388Z,4.70
2022-09-17T11:38:45.609Z,3.60
2022-09-17T11:39:45.609Z,2.70
2022-09-17T11:40:45.352Z,3.30
2022-09-17T11:41:45.502Z,4.20
2022-09-17T11:42:45.506Z,3.10
2022-09-17T11:43:45.371Z,3.80
2022-09-17T11:44:45.372Z,3.80
2022-09-17T11:45:45.315Z,5.60
2022-09-17T11:46:45.777Z,4.80
2022-09-17T11:47:45.275Z,3.30
2022-09-17T11:48:45.371Z,3.30
2022-09-17T11:49:45.378Z,3.80
2022-09-17T11:50:45.628Z,3.70
2022-09-17T11:51:46.669Z,2.90
2022-09-17T11:52:45.434Z,4.30
2022-09-17T11:53:45.305Z,3.00
2022-09-17T11:54:45.290Z,3.00
2022-09-17T11:55:48.675Z,4.50
2022-09-17T11:56:45.225Z,3.30
2022-09-17T11:57:45.166Z,4.00
2022-09-17T11:58:45.394Z,3.00
2022-09-17T11:59:45.309Z,3.50
2022-09-17T12:00:45.344Z,2.80
2022-09-17T12:01:45.205Z,3.70
2022-09-17T12:02:46.396Z,3.30
2022-09-17T12:03:45.088Z,3.40
2022-09-17T12:04:45.065Z,3.00
2022-09-17T12:05:45.367Z,2.90
2022-09-17T12:06:45.100Z,3.30
2022-09-17T12:07:45.245Z,3.90
2022-09-17T12:08:45.278Z,2.50
2022-09-17T12:09:45.154Z,3.30
2022-09-17T12:10:45.020Z,2.50
2022-09-17T12:11:45.033Z,2.40
2022-09-17T12:12:50.286Z,3.00
2022-09-17T12:13:45.043Z,2.80
2022-09-17T12:14:45.073Z,3.50
2022-09-17T12:15:48.704Z,3.50
2022-09-17T12:16:45.166Z,4.50
2022-09-17T12:17:45.026Z,2.20
2022-09-17T12:18:44.925Z,3.50
2022-09-17T12:19:45.577Z,3.40
2022-09-17T12:20:44.936Z,4.10
2022-09-17T12:21:44.926Z,3.20
2022-09-17T12:22:44.855Z,4.80
2022-09-17T12:23:45.134Z,4.70
2022-09-17T12:24:45.085Z,4.00
2022-09-17T12:25:45.041Z,3.00
2022-09-17T12:26:44.890Z,3.00
2022-09-17T12:27:44.916Z,3.60
2022-09-17T12:29:38.199Z,3.50
2022-09-17T12:30:39.614Z,4.90
2022-09-17T12:31:38.956Z,3.10
2022-09-17T12:32:38.920Z,3.60
2022-09-17T12:33:38.875Z,4.10
2022-09-17T12:34:38.862Z,3.50
2022-09-17T12:36:02.987Z,4.30
2022-09-17T12:36:38.904Z,5.00
2022-09-17T12:37:38.876Z,3.80
2022-09-17T12:38:38.967Z,5.00
2022-09-17T12:39:38.814Z,3.30
2022-09-17T12:40:38.883Z,2.90
2022-09-17T12:41:38.813Z,2.90
2022-09-17T12:42:39.132Z,2.80
2022-09-17T12:43:38.854Z,3.30
2022-09-17T12:44:39.030Z,2.80
2022-09-17T12:45:38.744Z,2.60
2022-09-17T12:46:38.771Z,2.30
2022-09-17T12:47:38.830Z,3.10
2022-09-17T12:48:38.716Z,3.60
2022-09-17T12:49:38.720Z,3.80
2022-09-17T12:50:39.122Z,3.40
2022-09-17T12:51:39.740Z,3.50
2022-09-17T12:52:38.685Z,3.30
2022-09-17T12:53:38.645Z,4.20
2022-09-17T12:54:43.072Z,4.10
2022-09-17T12:55:38.656Z,4.10
2022-09-17T12:56:38.719Z,3.20
2022-09-17T12:57:39.056Z,4.20
2022-09-17T12:58:39.617Z,5.30
2022-09-17T12:59:38.660Z,4.10
2022-09-17T13:00:38.716Z,2.70
2022-09-17T13:01:38.596Z,3.10
2022-09-17T13:02:39.599Z,2.70
2022-09-17T13:03:38.718Z,4.40
2022-09-17T13:05:00.031Z,4.00
2022-09-17T13:05:38.552Z,4.10
2022-09-17T13:06:38.588Z,3.90
2022-09-17T13:07:38.602Z,3.90
2022-09-17T13:08:39.775Z,3.80
2022-09-17T13:09:38.490Z,4.10
2022-09-17T13:10:38.486Z,4.80
2022-09-17T13:11:38.473Z,4.40
2022-09-17T13:12:38.509Z,4.10
2022-09-17T13:13:38.665Z,4.00
2022-09-17T13:14:38.487Z,4.20
2022-09-17T13:15:38.536Z,4.90
2022-09-17T13:16:38.425Z,3.80
2022-09-17T13:17:38.434Z,4.40
2022-09-17T13:18:41.435Z,5.00
2022-09-17T13:19:38.632Z,3.50